Latest Coastal Weather Observations for Truscott

IDD60701

Issued at 4:11 am CST Friday 28 April 2017 (issued every 10 minutes, with the page automatically refreshed every 10 minutes)

About coastal observations | Map of coastal stations | Coastal observations for NT | Marine services | Other Formats
Station Details ID: 001020 Name: TRUSCOTT Lat: -14.09 Lon: 126.39 Height: 51.0 m
Data from the previous 72 hours. | See also: Recent months at Truscott
Date/Time
CST
Temp
°C
Wind Pressure Rain since
9am
mm
Weather Cloud Vis
km
Sea
Height
m
Swell
Dir  Spd
kts
Gust
kts
hPa Trend Height
m
Period
s
Dir
28/04:00am 27.7 SE 8 15 1010.1 - 0.0 - Partly cloudy 10 - - - -
28/03:30am 28.1 SE 8 15 1010.4 - 0.0 - Partly cloudy 10 - - - -
28/03:00am 28.3 SE 8 15 1010.6 - 0.0 - Partly cloudy 10 - - - -
28/02:30am 28.0 SE 7 12 1010.6 - 0.0 - Partly cloudy 10 - - - -
28/02:00am 27.9 SE 6 11 1010.8 - 0.0 - Partly cloudy 10 - - - -
28/01:30am 28.1 SSE 6 9 1010.5 - 0.0 - Partly cloudy 10 - - - -
28/01:00am 28.1 SSE 6 10 1011.1 - 0.0 - Partly cloudy 10 - - - -
28/12:30am 28.0 SSE 6 10 1011.3 - 0.0 - Partly cloudy 10 - - - -
28/12:00am 27.9 SSE 5 7 1011.4 - 0.0 - Partly cloudy 10 - - - -
 
Date/Time
CST
Temp
°C
Wind Pressure Rain since
9am
mm
Weather Cloud Vis
km
Sea
Height
m
Swell
Dir  Spd
kts
Gust
kts
hPa Trend Height
m
Period
s
Dir
27/11:30pm 28.3 SE 5 8 1011.5 - 0.0 - - 10 - - - -
27/11:00pm 28.4 SSE 5 8 1011.5 - 0.0 - - 10 - - - -
27/10:30pm 28.7 SE 7 11 1011.1 - 0.0 - - 10 - - - -
27/10:00pm 28.9 SE 6 9 1011.7 - 0.0 - - 10 - - - -
27/09:30pm 29.0 SE 5 10 1011.6 - 0.0 - - 10 - - - -
27/09:00pm 29.3 SE 6 11 1011.2 - 0.0 - - 10 - - - -
27/08:30pm 29.5 SE 6 11 1011.1 - 0.0 - - 10 - - - -
27/08:00pm 29.7 SE 6 9 1010.6 - 0.0 - - 10 - - - -
27/07:30pm 30.0 ESE 6 10 1009.9 - 0.0 - - 10 - - - -
27/07:00pm 30.2 E 6 9 1010.0 - 0.0 - - 10 - - - -
27/06:30pm 30.4 ENE 6 9 1009.5 - 0.0 - - 10 - - - -
27/06:00pm 31.1 E 6 9 1009.1 - 0.0 - - 10 - - - -
27/05:30pm 32.1 E 6 9 1008.8 - 0.0 - - 10 - - - -
27/05:00pm 32.7 E 8 13 1008.5 - 0.0 - - 10 - - - -
27/04:30pm 33.0 E 10 15 1008.2 - 0.0 - - 10 - - - -
27/04:00pm 33.1 E 10 15 1008.7 - 0.0 - - 10 - - - -
27/03:30pm 32.9 E 9 16 1008.9 - 0.0 - - 10 - - - -
27/03:00pm 33.1 E 11 18 1009.1 - 0.0 - - 10 - - - -
27/02:30pm 33.1 E 12 19 1009.3 - 0.0 - - 10 - - - -
27/02:00pm 32.8 E 12 19 1009.5 - 0.0 - Partly cloudy 10 - - - -
27/01:30pm 32.5 ENE 11 18 1009.5 - 0.0 - Partly cloudy 10 - - - -
27/01:00pm 32.4 E 8 13 1010.5 - 0.0 - Partly cloudy 10 - - - -
27/12:30pm 32.3 E 9 15 1011.1 - 0.0 - Partly cloudy 10 - - - -
27/12:00pm 32.1 E 11 17 1011.5 - 0.0 - Partly cloudy 10 - - - -
27/11:30am 31.7 E 10 16 1012.0 - 0.0 - Partly cloudy 10 - - - -
27/11:00am 31.9 E 9 16 1012.1 - 0.0 - - 10 - - - -
27/10:30am 31.7 ESE 9 16 1011.8 - 0.0 - - 10 - - - -
27/10:00am 31.1 E 9 15 1012.2 - 0.0 - - 10 - - - -
27/09:30am 30.4 ESE 5 8 1012.1 - 0.0 - - 10 - - - -
27/09:00am 29.0 SE 3 6 1011.9 - 0.0 - - 10 - - - -
27/08:30am 27.6 SSE 3 4 1011.8 - 0.0 - - 10 - - - -
27/08:00am 26.8 S 4 5 1011.3 - 0.0 - - 10 - - - -
27/07:30am 26.3 S 4 5 1010.5 - 0.0 - - 10 - - - -
27/07:00am 26.9 S 4 5 1010.7 - 0.0 - Partly cloudy 10 - - - -
27/06:30am 27.4 S 5 7 1010.4 - 0.0 - Partly cloudy 10 - - - -
27/06:00am 27.4 SSW 5 7 1010.2 - 0.0 - Partly cloudy 10 - - - -
27/05:30am 27.2 SSW 6 8 1009.9 - 0.0 - Partly cloudy 10 - - - -
27/05:00am 27.0 S 6 8 1009.8 - 0.0 - - 10 - - - -
27/04:30am 27.2 SSW 6 8 1009.2 - 0.0 - Partly cloudy 10 - - - -
27/04:00am 27.1 SSW 5 7 1009.7 - 0.0 - - 10 - - - -
27/03:30am 27.0 SW 6 8 1009.6 - 0.0 - - 10 - - - -
27/03:00am 27.1 SW 7 9 1009.8 - 0.0 - - 10 - - - -
27/02:30am 27.0 SW 6 7 1010.1 - 0.0 - - 10 - - - -
27/02:00am 27.1 SSW 4 6 1010.4 - 0.0 - - 10 - - - -
27/01:30am 26.9 SSW 5 6 1010.2 - 0.0 - - 10 - - - -
27/01:00am 26.3 S 4 5 1010.9 - 0.0 - - 10 - - - -
27/12:30am 26.5 SW 3 5 1011.0 - 0.0 - - 10 - - - -
27/12:00am 26.5 SSE 3 4 1011.3 - 0.0 - - 10 - - - -
 
Date/Time
CST
Temp
°C
Wind Pressure Rain since
9am
mm
Weather Cloud Vis
km
Sea
Height
m
Swell
Dir  Spd
kts
Gust
kts
hPa Trend Height
m
Period
s
Dir
26/11:30pm 26.6 SE 3 4 1011.5 - 0.0 - - 10 - - - -
26/11:00pm 26.6 E 3 4 1011.7 - 0.0 - - 10 - - - -
26/10:30pm 26.5 E 3 4 1011.5 - 0.0 - - 10 - - - -
26/10:00pm 26.8 E 3 4 1011.6 - 0.0 - - 10 - - - -
26/09:30pm 27.1 ENE 2 3 1011.2 - 0.0 - - 10 - - - -
26/09:00pm 28.0 NNE 3 5 1010.8 - 0.0 - - 10 - - - -
26/08:30pm 28.2 NNE 5 6 1010.5 - 0.0 - - 10 - - - -
26/08:00pm 28.0 N 4 4 1009.8 - 0.0 - - 10 - - - -
26/07:30pm 28.5 N 4 5 1009.0 - 0.0 - - 10 - - - -
26/07:00pm 29.4 N 4 5 1009.1 - 0.0 - - 10 - - - -
26/06:30pm 30.2 N 4 6 1009.0 - 0.0 - - 10 - - - -
26/06:00pm 30.9 N 6 8 1008.7 - 0.0 - - 10 - - - -
26/05:30pm 32.1 N 6 9 1008.5 - 0.0 - - 10 - - - -
26/05:00pm 32.5 N 6 10 1008.1 - 0.0 - - 10 - - - -
26/04:30pm 32.7 N 6 10 1007.5 - 0.0 - - 10 - - - -
26/04:00pm 33.5 N 7 11 1008.0 - 0.0 - - 10 - - - -
26/03:30pm 33.8 ENE 8 13 1008.4 - 0.0 - - 10 - - - -
26/03:00pm 34.9 E 8 16 1008.4 - 0.0 - - 10 - - - -
26/02:30pm 34.5 ENE 9 14 1008.8 - 0.0 - - 10 - - - -
26/02:00pm 34.6 ENE 9 14 1009.1 - 0.0 - - 10 - - - -
26/01:30pm 34.2 E 10 17 1009.1 - 0.0 - - 10 - - - -
26/01:00pm 34.5 ESE 9 13 1009.8 - 0.0 - - 10 - - - -
26/12:30pm 34.7 ESE 6 11 1010.1 - 0.0 - - 10 - - - -
26/12:00pm 34.4 SE 7 11 1010.4 - 0.0 - - 10 - - - -
26/11:30am 34.2 SE 6 9 1010.8 - 0.0 - - 10 - - - -
26/11:00am 32.9 SSE 7 10 1011.0 - 0.0 - - 10 - - - -
26/10:30am 32.3 SSE 8 11 1010.8 - 0.0 - - 10 - - - -
26/10:00am 31.8 S 6 8 1011.4 - 0.0 - - 10 - - - -
26/09:30am 30.9 S 6 8 1011.5 - 0.0 - - 10 - - - -
26/09:00am 29.6 SSW 6 8 1011.6 - 0.0 - - 10 - - - -
26/08:30am 28.8 SSW 5 7 1011.5 - 0.0 - - 10 - - - -
26/08:00am 27.3 SSW 6 8 1011.0 - 0.0 - - 10 - - - -
26/07:30am 26.6 SSW 5 8 1010.3 - 0.0 - - 10 - - - -
26/07:00am 26.6 SSW 5 7 1010.1 - 0.0 - - 10 - - - -
26/06:30am 26.6 SW 6 7 1009.9 - 0.0 - - 10 - - - -
26/06:00am 26.6 SSW 7 8 1009.9 - 0.0 - - 10 - - - -
26/05:30am 26.6 SSW 5 6 1009.9 - 0.0 - - 10 - - - -
26/05:00am 26.6 SSW 5 6 1010.0 - 0.0 - - 10 - - - -
26/04:30am 26.6 SSW 5 7 1009.6 - 0.0 - - 10 - - - -
26/04:00am 26.7 SSW 4 5 1010.1 - 0.0 - - 10 - - - -
26/03:30am 26.9 SW 5 6 1010.3 - 0.0 - - 10 - - - -
26/03:00am 26.7 SW 4 5 1010.5 - 0.0 - - 10 - - - -
26/02:30am 25.3 CALM 0 0 1010.8 - 0.0 - - 10 - - - -
26/02:00am 25.5 CALM 0 0 1011.1 - 0.0 - - 10 - - - -
26/01:30am 25.9 CALM 0 0 1011.0 - 0.0 - - 10 - - - -
26/01:00am 25.8 CALM 0 0 1011.8 - 0.0 - - 10 - - - -
26/12:30am 25.8 CALM 0 0 1011.9 - 0.0 - - 10 - - - -
26/12:00am 25.9 CALM 0 0 1012.0 - 0.0 - - 10 - - - -
 
Date/Time
CST
Temp
°C
Wind Pressure Rain since
9am
mm
Weather Cloud Vis
km
Sea
Height
m
Swell
Dir  Spd
kts
Gust
kts
hPa Trend Height
m
Period
s
Dir
25/11:30pm 26.4 CALM 0 0 1012.1 - 0.0 - - 10 - - - -
25/11:00pm 26.6 CALM 0 0 1012.3 - 0.0 - - 10 - - - -
25/10:30pm 26.7 CALM 0 0 1012.1 - 0.0 - - 10 - - - -
25/10:00pm 27.2 CALM 0 0 1012.5 - 0.0 - - 10 - - - -
25/09:30pm 27.1 CALM 0 0 1012.2 - 0.0 - - 10 - - - -
25/09:00pm 27.5 CALM 0 0 1011.7 - 0.0 - - 10 - - - -
25/08:30pm 28.5 N 1 3 1011.3 - 0.0 - - 10 - - - -
25/08:00pm 29.3 N 3 4 1010.7 - 0.0 - - 10 - - - -
25/07:30pm 29.8 N 3 4 1010.0 - 0.0 - - 10 - - - -
25/07:00pm 30.3 N 4 7 1010.0 - 0.0 - Partly cloudy 10 - - - -
25/06:30pm 31.7 NNW 4 6 1009.5 - 0.0 - Partly cloudy 10 - - - -
25/06:00pm 32.6 NNW 4 6 1009.0 - 0.0 - Partly cloudy 10 - - - -
25/05:30pm 33.3 NW 5 8 1008.7 - 0.0 - - 10 - - - -
25/05:00pm 33.2 N 5 7 1008.6 - 0.0 - - 10 - - - -
25/04:30pm 33.6 NNW 5 8 1008.0 - 0.0 - - 10 - - - -
25/04:00pm 33.9 N 4 7 1008.3 - 0.0 - - 10 - - - -
25/03:30pm 33.2 WNW 6 8 1008.6 - 0.0 - - 10 - - - -
25/03:00pm 33.0 N 5 8 1009.0 - 0.0 - - 10 - - - -
25/02:30pm 34.4 E 7 11 1009.4 - 0.0 - - 10 - - - -
25/02:00pm 33.5 NW 5 7 1009.7 - 0.0 - Partly cloudy 10 - - - -
25/01:30pm 32.9 W 7 9 1009.8 - 0.0 - Partly cloudy 10 - - - -
25/01:00pm 33.0 WSW 7 11 1010.6 - 0.0 - Partly cloudy 10 - - - -
25/12:30pm 34.3 NW 4 7 1011.2 - 0.0 - Partly cloudy 10 - - - -
25/12:00pm 33.4 W 5 7 1011.5 - 0.0 - - 10 - - - -
25/11:30am 32.9 WSW 7 10 1011.9 - 0.0 - - 10 - - - -
25/11:00am 32.2 WSW 7 9 1012.3 - 0.0 - - 10 - - - -
25/10:30am 32.0 SW 6 9 1012.0 - 0.0 - - 10 - - - -
25/10:00am 31.0 SW 6 9 1012.2 - 0.0 - - 10 - - - -
25/09:30am 29.6 SW 4 6 1012.2 - 0.0 - - 10 - - - -
25/09:00am 29.1 SSW 3 5 1012.1 - 0.0 - - 10 - - - -
25/08:30am 27.9 CALM 0 0 1012.0 - 0.0 - - 10 - - - -
25/08:00am 25.9 S 1 3 1011.6 - 0.0 - - 10 - - - -
25/07:30am 25.7 SSW 3 5 1010.8 - 0.0 - - 10 - - - -
25/07:00am 25.8 SSW 4 5 1011.0 - 0.0 - - 10 - - - -
25/06:30am 27.0 SSW 4 6 1010.7 - 0.0 - - 10 - - - -
25/06:00am 27.1 SSW 5 6 1010.5 - 0.0 - - 10 - - - -

Other Formats:

Comma delimited format used in spreadsheet applications
http://www.bom.gov.au/fwo/IDD60701/IDD60701.95101.axf

JavaScript Object Notation format (JSON) in row-major order
http://www.bom.gov.au/fwo/IDD60701/IDD60701.95101.json